createdAt,value
2019-06-20T00:00:37.686Z,15.67
2019-06-20T00:03:09.293Z,16.43
2019-06-20T00:05:40.950Z,13.77
2019-06-20T00:08:13.266Z,15.73
2019-06-20T00:10:44.924Z,13.70
2019-06-20T00:13:16.497Z,13.47
2019-06-20T00:15:48.064Z,12.70
2019-06-20T00:18:19.648Z,15.20
2019-06-20T00:20:51.233Z,14.00
2019-06-20T00:23:22.799Z,14.03
2019-06-20T00:25:54.373Z,15.83
2019-06-20T00:28:25.950Z,12.43
2019-06-20T00:30:57.531Z,14.33
2019-06-20T00:33:29.078Z,15.53
2019-06-20T00:36:00.717Z,14.27
2019-06-20T00:38:33.250Z,14.93
2019-06-20T00:41:04.842Z,14.17
2019-06-20T00:43:36.397Z,13.87
2019-06-20T00:46:07.979Z,13.87
2019-06-20T00:48:39.525Z,14.83
2019-06-20T00:51:11.110Z,14.90
2019-06-20T00:53:42.677Z,15.13
2019-06-20T00:56:15.337Z,17.00
2019-06-20T00:58:48.002Z,16.33
2019-06-20T01:01:19.591Z,16.23
2019-06-20T01:03:51.163Z,16.13
2019-06-20T01:06:22.764Z,16.37
2019-06-20T01:08:54.315Z,15.20
2019-06-20T01:11:25.900Z,17.10
2019-06-20T01:13:57.509Z,15.17
2019-06-20T01:16:29.078Z,15.47
2019-06-20T01:19:00.687Z,13.13
2019-06-20T01:21:32.285Z,13.03
2019-06-20T01:24:03.857Z,14.37
2019-06-20T01:26:35.436Z,11.40
2019-06-20T01:29:06.988Z,13.37
2019-06-20T01:31:38.578Z,12.23
2019-06-20T01:34:10.175Z,13.13
2019-06-20T01:36:41.738Z,14.20
2019-06-20T01:39:13.410Z,14.20
2019-06-20T01:41:44.985Z,12.87
2019-06-20T01:44:16.591Z,17.27
2019-06-20T01:46:48.149Z,12.30
2019-06-20T01:49:19.849Z,13.03
2019-06-20T01:51:51.414Z,11.67
2019-06-20T01:54:22.957Z,13.10
2019-06-20T01:56:54.562Z,13.10
2019-06-20T01:59:26.138Z,13.53
2019-06-20T02:01:57.716Z,13.20
2019-06-20T02:04:29.279Z,14.37
2019-06-20T02:07:00.907Z,11.53
2019-06-20T02:09:32.476Z,12.00
2019-06-20T02:12:04.045Z,11.70
2019-06-20T02:14:35.598Z,11.47
2019-06-20T02:17:07.263Z,11.00
2019-06-20T02:19:38.878Z,11.60
2019-06-20T02:22:10.468Z,10.77
2019-06-20T02:24:42.029Z,10.00
2019-06-20T02:27:13.589Z,12.90
2019-06-20T02:29:45.171Z,9.43
2019-06-20T02:32:16.760Z,10.43
2019-06-20T02:34:48.314Z,8.53
2019-06-20T02:37:19.916Z,10.03
2019-06-20T02:39:51.496Z,11.90
2019-06-20T02:42:23.049Z,10.33
2019-06-20T02:44:54.605Z,10.63
2019-06-20T02:47:27.257Z,9.57
2019-06-20T02:49:58.820Z,10.13
2019-06-20T02:52:30.780Z,9.67
2019-06-20T02:55:02.366Z,9.87
2019-06-20T02:57:33.920Z,8.43
2019-06-20T03:00:06.299Z,7.87
2019-06-20T03:02:38.044Z,8.60
2019-06-20T03:05:11.111Z,7.53
2019-06-20T03:07:42.680Z,7.97
2019-06-20T03:10:14.388Z,7.27
2019-06-20T03:12:45.984Z,6.97
2019-06-20T03:15:17.530Z,8.80
2019-06-20T03:17:49.087Z,8.87
2019-06-20T03:20:20.673Z,10.33
2019-06-20T03:22:52.254Z,8.00
2019-06-20T03:25:24.197Z,7.50
2019-06-20T03:27:55.768Z,8.10
2019-06-20T03:30:27.449Z,7.27
2019-06-20T03:32:59.023Z,6.70
2019-06-20T03:35:30.589Z,7.20
2019-06-20T03:38:02.129Z,8.03
2019-06-20T03:40:33.718Z,9.40
2019-06-20T03:43:05.288Z,7.90
2019-06-20T03:45:37.116Z,7.17
2019-06-20T03:48:08.678Z,7.90
2019-06-20T03:50:40.217Z,6.90
2019-06-20T03:53:11.790Z,6.70
2019-06-20T03:55:43.357Z,7.20
2019-06-20T03:58:14.939Z,7.23
2019-06-20T04:00:46.535Z,7.13
2019-06-20T04:03:18.060Z,7.40
2019-06-20T04:05:49.630Z,6.50
2019-06-20T04:08:21.168Z,6.50
2019-06-20T04:10:52.747Z,8.43
2019-06-20T04:13:24.322Z,8.70
2019-06-20T04:15:55.920Z,6.90
2019-06-20T04:18:27.721Z,7.67
2019-06-20T04:20:59.312Z,8.60
2019-06-20T04:23:30.872Z,7.97
2019-06-20T04:26:02.437Z,8.10
2019-06-20T04:28:34.005Z,9.33
2019-06-20T04:31:05.610Z,7.23
2019-06-20T04:33:37.178Z,10.03
2019-06-20T04:36:08.751Z,12.63
2019-06-20T04:38:40.314Z,5.73
2019-06-20T04:41:11.877Z,5.00
2019-06-20T04:43:43.455Z,5.70
2019-06-20T04:46:26.538Z,6.13
2019-06-20T04:48:58.114Z,6.30
2019-06-20T04:51:29.856Z,6.03
2019-06-20T04:54:01.421Z,5.23
2019-06-20T04:56:32.978Z,4.83
2019-06-20T04:59:04.561Z,6.60
2019-06-20T05:01:37.172Z,5.63
2019-06-20T05:04:08.747Z,5.00
2019-06-20T05:06:41.064Z,4.47
2019-06-20T05:09:12.640Z,5.67
2019-06-20T05:11:44.264Z,5.33
2019-06-20T05:14:15.913Z,5.03
2019-06-20T05:16:47.477Z,5.50
2019-06-20T05:19:19.093Z,6.10
2019-06-20T05:21:50.642Z,6.50
2019-06-20T05:24:25.499Z,8.37
2019-06-20T05:26:55.486Z,7.77
2019-06-20T05:29:27.076Z,7.00
2019-06-20T05:31:58.657Z,12.03
2019-06-20T05:34:30.267Z,8.53
2019-06-20T05:37:01.827Z,7.70
2019-06-20T05:39:33.420Z,6.63
2019-06-20T05:42:05.031Z,9.03
2019-06-20T05:44:36.602Z,7.63
2019-06-20T05:47:12.626Z,7.03
2019-06-20T05:49:41.480Z,6.73
2019-06-20T05:52:13.042Z,8.00
2019-06-20T05:54:44.623Z,8.13
2019-06-20T05:57:16.216Z,11.93
2019-06-20T05:59:47.770Z,7.33
2019-06-20T06:02:19.352Z,7.50
2019-06-20T06:04:50.943Z,7.57
2019-06-20T06:07:23.070Z,9.23
2019-06-20T06:09:56.003Z,7.90
2019-06-20T06:12:27.546Z,6.80
2019-06-20T06:15:00.971Z,8.63
2019-06-20T06:17:32.484Z,6.00
2019-06-20T06:20:04.377Z,6.50
2019-06-20T06:22:35.982Z,7.40
2019-06-20T06:25:08.177Z,10.00
2019-06-20T06:27:39.748Z,8.00
2019-06-20T06:30:13.395Z,7.30
2019-06-20T06:32:44.984Z,8.00
2019-06-20T06:35:18.679Z,7.40
2019-06-20T06:37:50.297Z,7.57
2019-06-20T06:40:22.309Z,7.10
2019-06-20T06:42:53.958Z,7.63
2019-06-20T06:45:25.729Z,7.40
2019-06-20T06:47:57.332Z,6.80
2019-06-20T06:50:29.444Z,5.83
2019-06-20T06:53:01.002Z,6.30
2019-06-20T06:55:32.635Z,6.20
2019-06-20T06:58:04.162Z,6.67
2019-06-20T07:00:35.760Z,6.20
2019-06-20T07:03:07.360Z,5.90
2019-06-20T07:05:38.992Z,8.10
2019-06-20T07:08:11.790Z,6.63
2019-06-20T07:10:43.416Z,6.47
2019-06-20T07:13:15.192Z,6.67
2019-06-20T07:15:47.088Z,6.20
2019-06-20T07:18:18.842Z,6.30
2019-06-20T07:20:50.418Z,7.10
2019-06-20T07:23:22.004Z,5.77
2019-06-20T07:25:53.584Z,6.73
2019-06-20T07:28:25.161Z,5.33
2019-06-20T07:30:57.750Z,6.60
2019-06-20T07:33:29.331Z,5.97
2019-06-20T07:36:00.946Z,6.10
2019-06-20T07:38:32.518Z,6.57
2019-06-20T07:41:04.125Z,5.70
2019-06-20T07:43:35.880Z,5.70
2019-06-20T07:46:07.603Z,6.70
2019-06-20T07:48:39.180Z,6.77
2019-06-20T07:51:10.809Z,5.73
2019-06-20T07:53:42.481Z,5.60
2019-06-20T07:56:14.106Z,6.07
2019-06-20T07:58:45.717Z,5.73
2019-06-20T08:01:17.313Z,6.13
2019-06-20T08:03:50.098Z,11.13
2019-06-20T08:06:21.680Z,5.97
2019-06-20T08:08:53.454Z,4.80
2019-06-20T08:11:24.986Z,5.83
2019-06-20T08:13:58.538Z,4.43
2019-06-20T08:16:31.536Z,4.60
2019-06-20T08:19:03.608Z,4.13
2019-06-20T08:21:36.886Z,4.17
2019-06-20T08:24:08.456Z,5.33
2019-06-20T08:26:40.090Z,4.80
2019-06-20T08:29:20.885Z,4.70
2019-06-20T08:31:45.018Z,9.80
2019-06-20T08:34:16.795Z,6.97
2019-06-20T08:36:49.437Z,7.40
2019-06-20T08:39:21.091Z,5.57
2019-06-20T08:41:52.670Z,4.00
2019-06-20T08:44:24.337Z,4.20
2019-06-20T08:46:58.330Z,6.50
2019-06-20T08:49:30.472Z,5.30
2019-06-20T08:52:03.415Z,4.50
2019-06-20T08:54:35.105Z,4.50
2019-06-20T08:57:06.705Z,4.27
2019-06-20T08:59:38.310Z,5.50
2019-06-20T09:02:10.592Z,4.83
2019-06-20T09:04:42.233Z,6.43
2019-06-20T09:07:13.836Z,4.50
2019-06-20T09:09:45.456Z,4.10
2019-06-20T09:12:17.102Z,4.80
2019-06-20T09:14:48.715Z,5.60
2019-06-20T09:17:20.316Z,5.73
2019-06-20T09:19:52.888Z,3.97
2019-06-20T09:22:25.003Z,4.13
2019-06-20T09:24:56.852Z,6.37
2019-06-20T09:27:28.488Z,4.60
2019-06-20T09:30:00.525Z,4.40
2019-06-20T09:32:32.238Z,3.73
2019-06-20T09:35:03.984Z,4.63
2019-06-20T09:37:35.940Z,4.40
2019-06-20T09:40:08.627Z,5.50
2019-06-20T09:42:40.331Z,3.80
2019-06-20T09:45:14.796Z,12.37
2019-06-20T09:47:47.892Z,6.43
2019-06-20T09:50:19.723Z,5.47
2019-06-20T09:52:51.592Z,5.00
2019-06-20T09:55:24.595Z,5.03
2019-06-20T09:57:56.321Z,5.53
2019-06-20T10:00:29.875Z,8.33
2019-06-20T10:03:01.509Z,3.87
2019-06-20T10:05:36.426Z,3.90
2019-06-20T10:08:08.233Z,5.10
2019-06-20T10:10:39.923Z,4.03
2019-06-20T10:13:11.536Z,4.47
2019-06-20T10:15:43.422Z,3.95
2019-06-20T10:18:15.059Z,4.10
2019-06-20T10:20:47.250Z,5.47
2019-06-20T10:23:18.911Z,4.93
2019-06-20T10:25:51.531Z,4.80
2019-06-20T10:28:23.392Z,3.60
2019-06-20T10:30:57.781Z,3.70
2019-06-20T10:33:29.513Z,4.00
2019-06-20T10:36:01.107Z,3.70
2019-06-20T10:38:32.708Z,4.00
2019-06-20T10:41:04.569Z,3.87
2019-06-20T10:43:36.409Z,4.03
2019-06-20T10:46:08.011Z,3.90
2019-06-20T10:48:39.630Z,3.50
2019-06-20T10:51:28.857Z,4.93
2019-06-20T10:54:00.484Z,3.50
2019-06-20T10:56:32.067Z,4.30
2019-06-20T10:59:03.653Z,3.97
2019-06-20T11:01:35.268Z,5.17
2019-06-20T11:04:07.355Z,6.10
2019-06-20T11:06:40.100Z,4.97
2019-06-20T11:09:13.441Z,6.40
2019-06-20T11:11:45.067Z,4.83
2019-06-20T11:14:16.777Z,4.23
2019-06-20T11:16:49.314Z,5.97
2019-06-20T11:19:20.996Z,3.93
2019-06-20T11:21:52.582Z,14.57
2019-06-20T11:24:24.369Z,9.90
2019-06-20T11:26:55.997Z,13.23
2019-06-20T11:29:28.253Z,15.33
2019-06-20T11:32:00.070Z,12.53
2019-06-20T11:34:31.662Z,7.63
2019-06-20T11:37:03.276Z,10.03
2019-06-20T11:39:36.221Z,7.30
2019-06-20T11:42:08.135Z,7.70
2019-06-20T11:44:40.872Z,7.00
2019-06-20T11:47:12.572Z,13.13
2019-06-20T11:49:44.290Z,9.20
2019-06-20T11:52:16.002Z,14.10
2019-06-20T11:54:47.648Z,6.40
2019-06-20T11:57:19.268Z,4.93
2019-06-20T11:59:50.944Z,9.60
2019-06-20T12:02:22.552Z,4.37
2019-06-20T12:04:54.167Z,4.40
2019-06-20T12:07:25.967Z,8.53
2019-06-20T12:09:57.544Z,4.60
2019-06-20T12:12:29.165Z,8.33
2019-06-20T12:15:00.738Z,5.40
2019-06-20T12:17:32.364Z,10.97
2019-06-20T12:20:04.142Z,8.30
2019-06-20T12:22:35.717Z,10.03
2019-06-20T12:25:08.346Z,7.57
2019-06-20T12:27:40.796Z,5.60
2019-06-20T12:30:13.885Z,6.30
2019-06-20T12:32:46.800Z,6.33
2019-06-20T12:35:18.952Z,4.70
2019-06-20T12:37:52.136Z,6.83
2019-06-20T12:40:24.108Z,5.73
2019-06-20T12:42:56.770Z,4.40
2019-06-20T12:45:28.507Z,6.57
2019-06-20T12:48:01.558Z,4.10
2019-06-20T12:50:33.188Z,7.07
2019-06-20T12:53:04.906Z,8.07
2019-06-20T12:55:37.260Z,4.13
2019-06-20T12:58:09.822Z,6.70
2019-06-20T13:00:42.989Z,4.10
2019-06-20T13:03:14.752Z,4.20
2019-06-20T13:05:47.136Z,4.13
2019-06-20T13:08:22.362Z,8.93
2019-06-20T13:10:55.489Z,11.43
2019-06-20T13:13:28.437Z,5.40
2019-06-20T13:16:00.400Z,4.87
2019-06-20T13:18:32.526Z,5.70
2019-06-20T13:21:05.918Z,4.67
2019-06-20T13:23:39.732Z,3.80
2019-06-20T13:26:13.431Z,5.77
2019-06-20T13:29:01.637Z,4.57
2019-06-20T13:31:20.455Z,4.40
2019-06-20T13:33:52.455Z,4.17
2019-06-20T13:36:25.806Z,6.00
2019-06-20T13:39:03.947Z,6.20
2019-06-20T13:41:40.784Z,4.63
2019-06-20T13:44:14.934Z,9.40
2019-06-20T13:46:48.990Z,5.40
2019-06-20T13:49:23.669Z,8.70
2019-06-20T13:51:55.845Z,6.50
2019-06-20T13:54:27.861Z,6.50
2019-06-20T13:56:59.770Z,5.07
2019-06-20T13:59:31.709Z,6.40
2019-06-20T14:02:06.915Z,5.83
2019-06-20T14:04:37.354Z,6.87
2019-06-20T14:07:10.067Z,7.13
2019-06-20T14:09:44.648Z,6.07
2019-06-20T14:12:18.175Z,7.03
2019-06-20T14:14:52.121Z,5.80
2019-06-20T14:17:24.272Z,6.63
2019-06-20T14:19:56.629Z,4.80
2019-06-20T14:22:28.543Z,5.00
2019-06-20T14:25:00.560Z,4.90
2019-06-20T14:27:35.028Z,5.50
2019-06-20T14:30:07.396Z,4.87
2019-06-20T14:32:39.557Z,4.77
2019-06-20T14:35:13.107Z,4.83
2019-06-20T14:37:47.305Z,5.90
2019-06-20T14:40:20.093Z,4.13
2019-06-20T14:42:54.364Z,5.20
2019-06-20T14:45:27.789Z,4.47
2019-06-20T14:47:59.401Z,4.37
2019-06-20T14:50:30.996Z,4.00
2019-06-20T14:53:02.618Z,3.90
2019-06-20T14:55:34.195Z,4.50
2019-06-20T14:58:05.854Z,4.80
2019-06-20T15:00:37.443Z,5.33
2019-06-20T15:03:09.042Z,6.03
2019-06-20T15:05:41.706Z,5.43
2019-06-20T15:08:13.298Z,5.57
2019-06-20T15:10:46.518Z,5.13
2019-06-20T15:13:18.214Z,4.70
2019-06-20T15:15:51.024Z,5.20
2019-06-20T15:18:22.810Z,7.50
2019-06-20T15:20:57.818Z,4.73
2019-06-20T15:23:27.692Z,5.47
2019-06-20T15:25:59.483Z,5.70
2019-06-20T15:28:31.074Z,5.30
2019-06-20T15:31:02.704Z,5.07
2019-06-20T15:33:34.275Z,6.30
2019-06-20T15:36:05.893Z,5.93
2019-06-20T15:38:38.575Z,8.00
2019-06-20T15:41:12.443Z,4.90
2019-06-20T15:43:43.686Z,6.23
2019-06-20T15:46:15.304Z,5.17
2019-06-20T15:48:46.948Z,5.03
2019-06-20T15:51:18.630Z,5.17
2019-06-20T15:53:51.901Z,4.63
2019-06-20T15:56:23.483Z,4.80
2019-06-20T15:58:55.366Z,4.12
2019-06-20T16:01:27.085Z,4.10
2019-06-20T16:03:58.678Z,3.77
2019-06-20T16:06:30.389Z,4.10
2019-06-20T16:09:01.971Z,3.77
2019-06-20T16:11:35.202Z,2.90
2019-06-20T16:14:07.354Z,4.10
2019-06-20T16:16:38.920Z,3.10
2019-06-20T16:19:10.511Z,4.00
2019-06-20T16:21:42.117Z,3.60
2019-06-20T16:24:13.696Z,4.40
2019-06-20T16:26:45.352Z,4.20
2019-06-20T16:29:16.931Z,4.13
2019-06-20T16:31:48.531Z,3.60
2019-06-20T16:34:20.299Z,5.37
2019-06-20T16:36:51.923Z,3.23
2019-06-20T16:39:23.665Z,3.40
2019-06-20T16:41:55.253Z,4.33
2019-06-20T16:44:26.836Z,4.17
2019-06-20T16:46:58.469Z,3.30
2019-06-20T16:49:30.104Z,3.50
2019-06-20T16:52:01.705Z,6.53
2019-06-20T16:54:33.389Z,3.57
2019-06-20T16:57:05.145Z,3.93
2019-06-20T16:59:36.842Z,3.10
2019-06-20T17:02:08.469Z,3.73
2019-06-20T17:04:40.313Z,3.62
2019-06-20T17:07:12.066Z,3.50
2019-06-20T17:09:43.677Z,3.10
2019-06-20T17:12:15.334Z,3.00
2019-06-20T17:14:46.933Z,3.53
2019-06-20T17:17:18.548Z,2.70
2019-06-20T17:19:50.145Z,4.20
2019-06-20T17:22:21.990Z,3.10
2019-06-20T17:24:53.644Z,5.13
2019-06-20T17:27:25.533Z,3.90
2019-06-20T17:29:57.281Z,5.10
2019-06-20T17:32:29.943Z,4.67
2019-06-20T17:35:01.558Z,3.30
2019-06-20T17:37:33.321Z,6.17
2019-06-20T17:40:06.308Z,3.90
2019-06-20T17:42:37.955Z,4.03
2019-06-20T17:45:11.698Z,3.70
2019-06-20T17:47:43.313Z,4.10
2019-06-20T17:50:16.107Z,4.10
2019-06-20T17:52:47.693Z,3.90
2019-06-20T17:55:20.405Z,4.25
2019-06-20T17:57:51.962Z,4.30
2019-06-20T18:00:25.868Z,3.77
2019-06-20T18:02:57.567Z,3.80
2019-06-20T18:05:39.278Z,3.33
2019-06-20T18:08:15.153Z,3.23
2019-06-20T18:10:44.377Z,4.07
2019-06-20T18:13:16.067Z,4.03
2019-06-20T18:15:47.744Z,4.87
2019-06-20T18:18:19.379Z,9.20
2019-06-20T18:20:51.116Z,5.83
2019-06-20T18:23:22.819Z,4.53
2019-06-20T18:25:54.455Z,5.80
2019-06-20T18:28:26.184Z,4.63
2019-06-20T18:30:57.807Z,3.50
2019-06-20T18:33:29.417Z,4.10
2019-06-20T18:36:01.024Z,4.13
2019-06-20T18:38:32.640Z,4.17
2019-06-20T18:41:04.246Z,3.13
2019-06-20T18:43:36.082Z,3.77
2019-06-20T18:46:07.695Z,4.57
2019-06-20T18:48:39.581Z,4.27
2019-06-20T18:51:11.166Z,4.30
2019-06-20T18:53:42.826Z,5.30
2019-06-20T18:56:14.430Z,4.63
2019-06-20T18:58:46.032Z,3.87
2019-06-20T19:01:17.609Z,4.00
2019-06-20T19:03:49.229Z,5.93
2019-06-20T19:06:35.077Z,4.87
2019-06-20T19:08:54.657Z,6.90
2019-06-20T19:11:26.345Z,4.67
2019-06-20T19:13:57.922Z,4.90
2019-06-20T19:16:29.497Z,5.47
2019-06-20T19:19:01.123Z,5.37
2019-06-20T19:21:32.709Z,4.53
2019-06-20T19:24:04.752Z,4.50
2019-06-20T19:26:37.298Z,5.67
2019-06-20T19:29:08.887Z,5.30
2019-06-20T19:31:40.546Z,5.00
2019-06-20T19:34:12.245Z,7.87
2019-06-20T19:36:43.829Z,8.73
2019-06-20T19:39:15.494Z,9.07
2019-06-20T19:41:47.128Z,9.23
2019-06-20T19:44:18.735Z,7.30
2019-06-20T19:46:50.427Z,8.40
2019-06-20T19:49:22.093Z,5.70
2019-06-20T19:51:53.688Z,6.43
2019-06-20T19:54:25.339Z,7.30
2019-06-20T19:56:57.001Z,5.57
2019-06-20T19:59:28.744Z,4.30
2019-06-20T20:02:00.469Z,4.50
2019-06-20T20:04:32.103Z,5.73
2019-06-20T20:07:03.692Z,5.87
2019-06-20T20:09:35.551Z,6.67
2019-06-20T20:12:07.166Z,5.70
2019-06-20T20:14:38.851Z,6.60
2019-06-20T20:17:10.481Z,6.30
2019-06-20T20:19:42.112Z,7.97
2019-06-20T20:22:13.926Z,7.10
2019-06-20T20:24:47.173Z,5.03
2019-06-20T20:27:18.784Z,5.03
2019-06-20T20:29:50.395Z,6.73
2019-06-20T20:32:22.038Z,7.13
2019-06-20T20:34:53.678Z,7.30
2019-06-20T20:37:25.279Z,7.60
2019-06-20T20:39:56.876Z,5.50
2019-06-20T20:42:28.465Z,6.17
2019-06-20T20:45:00.066Z,5.10
2019-06-20T20:47:31.663Z,5.87
2019-06-20T20:50:03.267Z,11.87
2019-06-20T20:52:35.972Z,7.07
2019-06-20T20:55:08.882Z,4.30
2019-06-20T20:57:40.542Z,4.03
2019-06-20T21:00:17.002Z,6.40
2019-06-20T21:02:48.629Z,4.33
2019-06-20T21:05:20.437Z,9.20
2019-06-20T21:07:52.308Z,6.47
2019-06-20T21:10:24.206Z,4.90
2019-06-20T21:12:55.917Z,7.43
2019-06-20T21:15:27.535Z,9.30
2019-06-20T21:17:59.213Z,5.70
2019-06-20T21:20:30.849Z,8.23
2019-06-20T21:23:02.491Z,7.73
2019-06-20T21:25:34.129Z,10.60
2019-06-20T21:28:05.706Z,6.60
2019-06-20T21:30:37.407Z,5.30
2019-06-20T21:33:08.971Z,9.70
2019-06-20T21:35:40.598Z,6.63
2019-06-20T21:38:12.236Z,6.80
2019-06-20T21:40:43.850Z,6.50
2019-06-20T21:43:15.452Z,7.40
2019-06-20T21:45:47.474Z,5.67
2019-06-20T21:48:19.059Z,6.40
2019-06-20T21:50:50.939Z,9.70
2019-06-20T21:53:22.531Z,7.00
2019-06-20T21:55:54.118Z,7.83
2019-06-20T21:58:25.768Z,6.40
2019-06-20T22:01:00.803Z,6.33
2019-06-20T22:03:34.176Z,9.83
2019-06-20T22:06:05.781Z,7.60
2019-06-20T22:08:37.523Z,5.10
2019-06-20T22:11:09.103Z,6.27
2019-06-20T22:13:43.127Z,7.30
2019-06-20T22:16:14.852Z,7.37
2019-06-20T22:18:46.456Z,5.67
2019-06-20T22:21:18.035Z,15.37
2019-06-20T22:23:49.626Z,5.70
2019-06-20T22:26:21.231Z,5.27
2019-06-20T22:28:52.864Z,6.90
2019-06-20T22:31:24.460Z,6.47
2019-06-20T22:33:56.121Z,5.70
2019-06-20T22:36:39.600Z,8.23
2019-06-20T22:39:01.015Z,5.73
2019-06-20T22:41:34.232Z,7.13
2019-06-20T22:44:05.790Z,6.37
2019-06-20T22:46:37.370Z,11.10
2019-06-20T22:49:08.977Z,4.70
2019-06-20T22:51:40.612Z,6.47
2019-06-20T22:54:12.224Z,5.20
2019-06-20T22:56:43.784Z,8.90
2019-06-20T22:59:15.359Z,10.53
2019-06-20T23:01:46.942Z,9.13
2019-06-20T23:04:18.518Z,6.00
2019-06-20T23:06:56.307Z,6.37
2019-06-20T23:09:24.278Z,7.77
2019-06-20T23:11:56.668Z,6.63
2019-06-20T23:14:28.258Z,5.17
2019-06-20T23:16:59.856Z,7.10
2019-06-20T23:19:31.486Z,6.43
2019-06-20T23:22:03.065Z,6.00
2019-06-20T23:24:34.623Z,6.83
2019-06-20T23:27:06.185Z,5.70
2019-06-20T23:29:37.738Z,5.40
2019-06-20T23:32:09.320Z,6.10
2019-06-20T23:34:40.952Z,7.63
2019-06-20T23:37:13.380Z,7.90
2019-06-20T23:39:45.039Z,6.30
2019-06-20T23:42:16.644Z,6.70
2019-06-20T23:44:48.340Z,6.13
2019-06-20T23:47:19.992Z,6.60
2019-06-20T23:49:51.662Z,5.67
2019-06-20T23:52:25.750Z,5.43
2019-06-20T23:54:57.410Z,7.47
2019-06-20T23:57:29.051Z,8.63
